Time;durP1;ratioP1;P1;durP2;ratioP2;P2;SDS_P1;SDS_P2;PMS_P1;PMS_P2;Temp;Humidity;BMP_temperature;BMP_pressure;BME280_temperature;BME280_humidity;BME280_pressure;Samples;Min_cycle;Max_cycle;Signal;HPM_P1;HPM_P2
2022/09/29 00:00:20;;;;;;;4.47;4.07;;;10.70;97.20;;;;;;4994840;28;20291;-89
2022/09/29 00:02:46;;;;;;;4.20;3.80;;;10.60;98.00;;;;;;5003650;28;20200;-88
2022/09/29 00:05:11;;;;;;;4.00;3.70;;;10.60;97.30;;;;;;4983606;28;20289;-89
2022/09/29 00:07:37;;;;;;;4.77;4.00;;;10.60;97.50;;;;;;4998780;28;20204;-89
2022/09/29 00:10:03;;;;;;;4.60;3.90;;;10.60;97.30;;;;;;5001744;28;20219;-89
2022/09/29 00:12:29;;;;;;;4.63;3.87;;;10.70;97.50;;;;;;5003310;28;20288;-89
2022/09/29 00:14:55;;;;;;;4.30;3.90;;;10.60;97.10;;;;;;4990734;28;20982;-89
2022/09/29 00:17:20;;;;;;;4.27;3.87;;;10.60;98.00;;;;;;4996043;28;20217;-89
2022/09/29 00:19:46;;;;;;;4.90;3.87;;;10.60;98.00;;;;;;5000836;28;20213;-89
2022/09/29 00:22:12;;;;;;;4.47;3.93;;;10.60;97.70;;;;;;5004038;28;20674;-89
2022/09/29 00:24:37;;;;;;;4.43;4.03;;;10.60;97.10;;;;;;4988521;28;20236;-88
2022/09/29 00:27:03;;;;;;;4.43;4.03;;;10.50;97.30;;;;;;4999348;28;20188;-89
2022/09/29 00:29:29;;;;;;;4.43;4.13;;;10.60;97.40;;;;;;5000995;28;20547;-87
2022/09/29 00:31:54;;;;;;;4.07;3.73;;;10.60;96.90;;;;;;4999478;28;20212;-89
2022/09/29 00:34:20;;;;;;;4.07;3.77;;;10.50;97.50;;;;;;4975826;28;20225;-89
2022/09/29 00:36:46;;;;;;;5.33;3.80;;;10.60;97.80;;;;;;4980735;28;20203;-89
2022/09/29 00:39:11;;;;;;;5.03;4.00;;;10.50;96.60;;;;;;4989041;28;20214;-88
2022/09/29 00:41:39;;;;;;;4.97;4.07;;;10.40;98.40;;;;;;4998836;28;20193;-89
2022/09/29 00:44:13;;;;;;;5.60;3.87;;;10.40;98.70;;;;;;5004648;28;20197;-89
2022/09/29 00:46:42;;;;;;;4.53;4.13;;;10.50;99.10;;;;;;5006380;28;20192;-89
2022/09/29 00:49:35;;;;;;;7.93;3.93;;;10.50;99.30;;;;;;4983304;28;20219;-89
2022/09/29 00:52:04;;;;;;;4.30;3.90;;;10.70;98.70;;;;;;4982848;28;20183;-89
2022/09/29 00:54:36;;;;;;;6.63;3.90;;;10.60;98.30;;;;;;4991493;28;20215;-89
2022/09/29 00:57:06;;;;;;;4.13;3.83;;;10.60;98.70;;;;;;4995133;28;20241;-89
2022/09/29 00:59:45;;;;;;;3.87;3.57;;;10.60;97.90;;;;;;5004363;28;20208;-89
2022/09/29 01:02:11;;;;;;;4.67;3.90;;;10.50;98.90;;;;;;4999002;28;20273;-89
2022/09/29 01:04:38;;;;;;;4.47;4.17;;;10.50;99.90;;;;;;5006179;28;20184;-89
2022/09/29 01:07:04;;;;;;;4.13;3.60;;;10.50;99.90;;;;;;4984319;28;20208;-89
2022/09/29 01:09:36;;;;;;;4.27;3.60;;;10.40;99.40;;;;;;4986187;28;20244;-89
2022/09/29 01:12:02;;;;;;;3.90;3.60;;;10.40;99.90;;;;;;4977631;28;20270;-89
2022/09/29 01:14:30;;;;;;;4.10;3.80;;;10.50;99.90;;;;;;4999690;28;20296;-89
2022/09/29 01:16:56;;;;;;;4.97;3.83;;;10.50;99.80;;;;;;4998720;28;20265;-89
2022/09/29 01:19:44;;;;;;;5.67;4.10;;;10.50;99.50;;;;;;4993502;28;20257;-89
2022/09/29 01:22:27;;;;;;;4.00;3.67;;;10.40;99.60;;;;;;4990627;28;20188;-89
2022/09/29 01:25:00;;;;;;;4.43;3.90;;;10.40;99.90;;;;;;4983225;28;20190;-89
2022/09/29 01:27:45;;;;;;;4.33;3.93;;;10.40;99.90;;;;;;4989998;28;20720;-89
2022/09/29 01:30:21;;;;;;;4.17;3.80;;;10.50;99.90;;;;;;4992658;28;20251;-89
2022/09/29 01:33:05;;;;;;;4.63;3.83;;;10.50;99.90;;;;;;4992230;28;20209;-89
2022/09/29 01:35:52;;;;;;;3.77;3.47;;;10.50;99.90;;;;;;4994439;28;20201;-89
2022/09/29 01:38:37;;;;;;;4.53;4.20;;;10.50;99.90;;;;;;5000969;28;20185;-89
2022/09/29 01:41:11;;;;;;;4.13;3.30;;;10.50;99.90;;;;;;4994684;28;20180;-89
2022/09/29 01:43:39;;;;;;;4.13;3.83;;;10.50;99.90;;;;;;4973857;28;20270;-89
2022/09/29 01:46:26;;;;;;;4.30;3.67;;;10.50;99.90;;;;;;4996181;28;20191;-89
2022/09/29 01:48:55;;;;;;;5.00;4.13;;;10.60;99.90;;;;;;4992871;28;20241;-89
2022/09/29 01:51:28;;;;;;;5.77;3.97;;;10.50;99.90;;;;;;5003265;28;20177;-89
2022/09/29 01:53:59;;;;;;;4.37;3.97;;;10.60;99.90;;;;;;4994720;28;20202;-89
2022/09/29 01:56:50;;;;;;;4.50;4.10;;;10.50;99.90;;;;;;4997694;28;20209;-89
2022/09/29 01:59:42;;;;;;;4.93;4.33;;;10.60;99.60;;;;;;4986455;28;20562;-88
2022/09/29 02:02:14;;;;;;;5.93;3.57;;;10.60;99.60;;;;;;5005536;28;20182;-88
2022/09/29 02:04:51;;;;;;;4.83;3.90;;;10.50;99.90;;;;;;5022204;28;20170;-89
2022/09/29 02:07:23;;;;;;;5.43;3.87;;;10.50;99.50;;;;;;5007506;28;20191;-88
2022/09/29 02:09:56;;;;;;;5.93;3.80;;;10.30;99.90;;;;;;5001421;28;20236;-88
2022/09/29 02:12:26;;;;;;;3.77;3.47;;;10.20;99.90;;;;;;5008121;28;20200;-88
2022/09/29 02:14:53;;;;;;;5.00;4.47;;;10.30;99.90;;;;;;5023566;28;20216;-87
2022/09/29 02:17:30;;;;;;;5.07;4.63;;;10.30;99.90;;;;;;5003678;28;20189;-87
2022/09/29 02:19:56;;;;;;;4.70;4.20;;;10.30;99.90;;;;;;5007724;28;20229;-87
2022/09/29 02:22:21;;;;;;;4.67;4.27;;;10.30;99.90;;;;;;5007762;28;20663;-88
2022/09/29 02:24:51;;;;;;;5.27;4.17;;;10.20;99.90;;;;;;5005441;28;20192;-90
2022/09/29 02:27:17;;;;;;;4.87;4.47;;;10.20;99.90;;;;;;5000233;28;20633;-87
2022/09/29 02:29:43;;;;;;;5.50;5.00;;;10.20;99.90;;;;;;4999972;28;20574;-87
2022/09/29 02:32:09;;;;;;;5.40;4.90;;;10.00;99.90;;;;;;5005543;28;20236;-87
2022/09/29 02:34:41;;;;;;;7.03;6.43;;;9.90;99.90;;;;;;4999909;28;20225;-90
2022/09/29 02:37:39;;;;;;;5.57;5.07;;;10.00;99.90;;;;;;4995983;28;21009;-90
2022/09/29 02:40:14;;;;;;;4.53;4.13;;;10.10;99.90;;;;;;4995581;28;20266;-87
2022/09/29 02:43:04;;;;;;;5.77;5.10;;;10.10;99.90;;;;;;4993501;28;20183;-88
2022/09/29 02:45:48;;;;;;;6.30;5.70;;;10.20;99.90;;;;;;5001234;28;20184;-88
2022/09/29 02:48:23;;;;;;;6.90;5.10;;;10.10;99.90;;;;;;4996313;28;20194;-88
2022/09/29 02:51:09;;;;;;;5.37;4.87;;;10.10;99.90;;;;;;5012757;28;20668;-88
2022/09/29 02:53:41;;;;;;;5.33;4.40;;;10.00;99.90;;;;;;4994217;28;20187;-88
2022/09/29 02:56:31;;;;;;;5.40;4.43;;;10.00;99.90;;;;;;4996633;28;20184;-87
2022/09/29 02:59:06;;;;;;;7.40;4.80;;;10.00;99.90;;;;;;4992184;28;20215;-88
2022/09/29 03:01:33;;;;;;;5.20;4.70;;;10.10;99.90;;;;;;5001275;28;20600;-90
2022/09/29 03:03:59;;;;;;;5.23;4.03;;;10.00;99.90;;;;;;5001106;28;20194;-87
2022/09/29 03:06:26;;;;;;;4.43;4.03;;;10.10;99.90;;;;;;4993880;28;20682;-87
2022/09/29 03:08:52;;;;;;;4.47;4.07;;;10.00;99.90;;;;;;5011353;28;20191;-88
2022/09/29 03:11:17;;;;;;;5.13;3.83;;;10.20;99.90;;;;;;4994479;28;20686;-87
2022/09/29 03:13:43;;;;;;;4.40;3.80;;;10.30;99.90;;;;;;5007831;28;20194;-87
2022/09/29 03:16:09;;;;;;;4.40;4.00;;;10.40;99.90;;;;;;4995912;28;20193;-90
2022/09/29 03:18:34;;;;;;;4.53;3.53;;;10.40;99.90;;;;;;4993685;28;20268;-87
2022/09/29 03:21:00;;;;;;;5.50;4.13;;;10.50;99.90;;;;;;5004778;28;20185;-90
2022/09/29 03:23:26;;;;;;;5.10;3.67;;;10.50;99.90;;;;;;4999326;28;20178;-89
2022/09/29 03:25:51;;;;;;;4.20;3.80;;;10.60;99.90;;;;;;4998749;28;20197;-90
2022/09/29 03:28:17;;;;;;;4.20;3.80;;;10.60;99.90;;;;;;4986395;28;20197;-89
2022/09/29 03:30:44;;;;;;;6.23;4.20;;;10.60;99.90;;;;;;4978528;28;20387;-89
2022/09/29 03:33:11;;;;;;;3.90;3.60;;;10.50;99.80;;;;;;4998672;28;20202;-87
2022/09/29 03:35:36;;;;;;;4.23;3.83;;;10.50;99.50;;;;;;5002010;28;20230;-90
2022/09/29 03:38:02;;;;;;;4.47;4.07;;;10.50;99.60;;;;;;4994783;28;20252;-87
2022/09/29 03:40:28;;;;;;;4.87;4.47;;;10.50;99.20;;;;;;5003719;28;20316;-87
2022/09/29 03:42:54;;;;;;;4.80;4.33;;;10.40;99.30;;;;;;5007299;28;20211;-90
2022/09/29 03:45:19;;;;;;;5.30;4.83;;;10.30;99.90;;;;;;4999219;28;20194;-89
2022/09/29 03:47:45;;;;;;;5.00;4.60;;;10.30;99.90;;;;;;4989072;28;20281;-90
2022/09/29 03:50:12;;;;;;;4.87;4.03;;;10.30;99.90;;;;;;4997594;28;20291;-90
2022/09/29 03:52:38;;;;;;;4.23;3.93;;;10.30;99.90;;;;;;5001613;28;20245;-87
2022/09/29 03:55:04;;;;;;;4.10;3.80;;;10.40;99.90;;;;;;4999865;28;20211;-90
2022/09/29 03:57:30;;;;;;;4.83;4.30;;;10.40;99.90;;;;;;4998756;28;20185;-90
2022/09/29 03:59:56;;;;;;;4.43;4.03;;;10.40;99.80;;;;;;5003627;28;20253;-90
2022/09/29 04:02:22;;;;;;;4.60;4.20;;;10.30;99.70;;;;;;5003776;28;20271;-90
2022/09/29 04:04:47;;;;;;;5.33;3.80;;;10.30;99.90;;;;;;4982387;28;20197;-90
2022/09/29 04:07:13;;;;;;;4.43;3.80;;;10.30;99.80;;;;;;4992406;28;20193;-89
2022/09/29 04:09:38;;;;;;;7.03;4.70;;;10.30;99.30;;;;;;4999981;28;20613;-90
2022/09/29 04:12:04;;;;;;;4.90;4.50;;;10.20;99.90;;;;;;4994201;28;20795;-89
2022/09/29 04:14:30;;;;;;;4.47;3.70;;;10.10;99.90;;;;;;5004284;28;20308;-90
2022/09/29 04:16:56;;;;;;;4.77;4.27;;;10.10;99.90;;;;;;5007919;28;20359;-89
2022/09/29 04:19:21;;;;;;;4.30;3.97;;;10.10;99.90;;;;;;5002505;28;20300;-89
2022/09/29 04:21:47;;;;;;;4.93;4.53;;;10.10;99.90;;;;;;4999776;28;20216;-90
2022/09/29 04:24:13;;;;;;;4.60;4.20;;;10.00;99.90;;;;;;4992254;28;20189;-89
2022/09/29 04:26:39;;;;;;;5.00;4.53;;;10.00;99.90;;;;;;5013670;28;20255;-90
2022/09/29 04:29:05;;;;;;;4.60;4.20;;;10.00;99.90;;;;;;4997260;28;20216;-90
2022/09/29 04:31:31;;;;;;;4.90;4.10;;;10.00;99.90;;;;;;5002957;28;20290;-89
2022/09/29 04:33:57;;;;;;;4.80;4.40;;;10.00;99.90;;;;;;5008329;28;20221;-89
2022/09/29 04:36:23;;;;;;;4.27;3.97;;;10.10;99.50;;;;;;5006791;28;20675;-90
2022/09/29 04:38:50;;;;;;;5.40;4.90;;;10.00;99.90;;;;;;4994834;28;20193;-89
2022/09/29 04:41:16;;;;;;;5.07;4.67;;;9.90;99.80;;;;;;5001098;28;20185;-90
2022/09/29 04:43:42;;;;;;;5.07;4.67;;;9.90;99.90;;;;;;5004831;28;20221;-89
2022/09/29 04:46:09;;;;;;;5.10;4.70;;;9.90;99.90;;;;;;5007788;28;20193;-89
2022/09/29 04:48:36;;;;;;;5.30;4.90;;;10.00;99.90;;;;;;5005321;28;20213;-89
2022/09/29 04:51:03;;;;;;;4.57;4.27;;;10.10;99.90;;;;;;4995763;28;20213;-90
2022/09/29 04:53:30;;;;;;;4.50;4.10;;;10.10;99.90;;;;;;4999447;28;20202;-90
2022/09/29 04:55:55;;;;;;;4.10;3.70;;;10.00;99.90;;;;;;5012001;28;20212;-89
2022/09/29 04:58:21;;;;;;;5.80;5.27;;;10.00;99.90;;;;;;4999684;28;20308;-89
2022/09/29 05:00:47;;;;;;;5.13;4.47;;;10.00;99.90;;;;;;5006888;28;20267;-89
2022/09/29 05:03:12;;;;;;;4.70;4.40;;;10.00;99.90;;;;;;4996780;28;20710;-90
2022/09/29 05:05:38;;;;;;;5.47;4.17;;;10.00;99.90;;;;;;4999828;28;20609;-89
2022/09/29 05:08:04;;;;;;;5.10;4.70;;;10.00;99.90;;;;;;4998533;28;20196;-90
2022/09/29 05:10:30;;;;;;;6.27;4.60;;;10.10;99.90;;;;;;5010531;28;20216;-89
2022/09/29 05:12:56;;;;;;;5.60;5.10;;;10.00;99.90;;;;;;4999259;28;20203;-89
2022/09/29 05:15:22;;;;;;;5.17;4.43;;;9.90;99.90;;;;;;4985591;28;20208;-89
2022/09/29 05:17:47;;;;;;;6.50;5.70;;;9.80;99.90;;;;;;5003660;28;20183;-90
2022/09/29 05:20:15;;;;;;;5.03;4.63;;;9.70;99.90;;;;;;5002084;28;20217;-89
2022/09/29 05:22:41;;;;;;;8.83;8.10;;;9.80;99.90;;;;;;5006034;28;20188;-89
2022/09/29 05:25:08;;;;;;;14.70;13.40;;;9.80;99.90;;;;;;5009499;28;20219;-89
2022/09/29 05:27:35;;;;;;;10.13;8.00;;;9.80;99.90;;;;;;4998309;28;20188;-89
2022/09/29 05:30:01;;;;;;;7.63;5.83;;;9.90;99.90;;;;;;5009600;28;20231;-90
2022/09/29 05:32:26;;;;;;;7.33;6.60;;;10.00;99.90;;;;;;4988910;28;20286;-89
2022/09/29 05:34:52;;;;;;;7.93;6.43;;;10.00;99.90;;;;;;4995323;28;20669;-89
2022/09/29 05:37:18;;;;;;;11.53;7.43;;;10.00;99.90;;;;;;5010562;28;20192;-90
2022/09/29 05:39:45;;;;;;;10.07;7.97;;;10.00;99.90;;;;;;5021204;28;20276;-90
2022/09/29 05:42:11;;;;;;;7.23;6.47;;;9.90;99.90;;;;;;5011703;28;20185;-90
2022/09/29 05:44:37;;;;;;;8.03;7.20;;;9.90;99.90;;;;;;4999017;28;20196;-90
2022/09/29 05:47:02;;;;;;;9.17;7.50;;;10.00;99.90;;;;;;5017517;28;20247;-89
2022/09/29 05:49:30;;;;;;;8.47;6.90;;;10.10;99.90;;;;;;5008248;28;20220;-90
2022/09/29 05:51:58;;;;;;;8.47;7.57;;;10.10;99.90;;;;;;5004836;28;20260;-89
2022/09/29 05:54:26;;;;;;;9.77;7.27;;;10.10;99.90;;;;;;5011511;28;20213;-90
2022/09/29 05:56:52;;;;;;;9.17;7.40;;;10.10;99.90;;;;;;5002737;28;20244;-89
2022/09/29 05:59:17;;;;;;;9.10;7.63;;;10.00;99.90;;;;;;4993857;28;20484;-90
2022/09/29 06:01:43;;;;;;;8.53;7.67;;;10.10;99.90;;;;;;4999600;28;20194;-89
2022/09/29 06:04:09;;;;;;;8.27;7.17;;;10.20;99.90;;;;;;5013051;28;20216;-90
2022/09/29 06:06:39;;;;;;;8.50;7.53;;;10.30;99.90;;;;;;5003830;28;20185;-89
2022/09/29 06:09:05;;;;;;;7.67;6.97;;;10.20;99.90;;;;;;4994713;28;20210;-90
2022/09/29 06:11:31;;;;;;;6.57;5.97;;;10.20;99.90;;;;;;4986880;28;20198;-89
2022/09/29 06:13:57;;;;;;;6.27;5.67;;;10.20;99.90;;;;;;4988056;28;20614;-90
2022/09/29 06:16:26;;;;;;;6.47;5.83;;;10.30;99.90;;;;;;5009529;28;20596;-90
2022/09/29 06:18:52;;;;;;;5.70;5.20;;;10.30;99.90;;;;;;5010010;28;20193;-89
2022/09/29 06:21:22;;;;;;;5.93;5.37;;;10.30;99.90;;;;;;5009613;28;20284;-90
2022/09/29 06:23:48;;;;;;;5.97;5.37;;;10.20;99.90;;;;;;5009666;28;20189;-88
2022/09/29 06:26:16;;;;;;;7.10;6.37;;;10.20;99.90;;;;;;5000901;28;20205;-90
2022/09/29 06:28:41;;;;;;;6.03;5.63;;;10.20;99.90;;;;;;4996424;28;20198;-91
2022/09/29 06:31:17;;;;;;;8.87;8.27;;;10.30;99.90;;;;;;5002738;28;20192;-90
2022/09/29 06:33:43;;;;;;;8.40;7.70;;;10.30;99.90;;;;;;5007686;28;20665;-91
2022/09/29 06:39:32;;;;;;;5.33;4.93;;;10.40;99.90;;;;;;4982710;28;20221;-90
2022/09/29 06:41:58;;;;;;;4.67;4.27;;;10.40;99.90;;;;;;4967919;28;20198;-91
2022/09/29 06:44:29;;;;;;;5.00;4.60;;;10.50;99.90;;;;;;4985727;28;20231;-90
2022/09/29 06:46:56;;;;;;;4.27;3.97;;;10.50;99.90;;;;;;5000233;28;20558;-90
2022/09/29 06:49:23;;;;;;;4.63;4.23;;;10.40;99.90;;;;;;5007153;28;20227;-90
2022/09/29 06:51:49;;;;;;;4.50;4.10;;;10.60;99.90;;;;;;5009932;28;20193;-90
2022/09/29 06:54:19;;;;;;;4.77;4.37;;;10.40;99.90;;;;;;4998922;28;20259;-90
2022/09/29 06:56:48;;;;;;;6.80;6.20;;;10.10;99.90;;;;;;5008151;28;20192;-91
2022/09/29 06:59:15;;;;;;;7.70;7.00;;;10.00;99.90;;;;;;5006838;28;20208;-90
2022/09/29 07:01:41;;;;;;;6.40;5.80;;;9.90;99.90;;;;;;5002211;28;20172;-90
2022/09/29 07:04:07;;;;;;;6.30;5.33;;;9.80;99.90;;;;;;4999642;28;20638;-89
2022/09/29 07:06:33;;;;;;;7.37;5.97;;;9.90;99.90;;;;;;4994721;28;20192;-90
2022/09/29 07:09:00;;;;;;;6.50;5.33;;;9.80;99.90;;;;;;4995112;28;20219;-89
2022/09/29 07:11:26;;;;;;;7.37;5.70;;;9.90;99.90;;;;;;5005928;28;20615;-90
2022/09/29 07:13:53;;;;;;;5.13;4.50;;;10.10;99.90;;;;;;5002689;28;20196;-91
2022/09/29 07:16:19;;;;;;;6.23;5.23;;;10.20;99.90;;;;;;5004450;28;20194;-89
2022/09/29 07:18:45;;;;;;;6.33;4.97;;;10.40;99.90;;;;;;4995565;28;20781;-90
2022/09/29 07:21:16;;;;;;;5.70;5.20;;;10.30;99.90;;;;;;4995448;28;20182;-90
2022/09/29 07:23:42;;;;;;;6.93;5.40;;;10.20;99.90;;;;;;4997213;28;20192;-89
2022/09/29 07:26:08;;;;;;;5.83;5.27;;;10.40;99.90;;;;;;4994976;28;20201;-89
2022/09/29 07:28:34;;;;;;;8.27;5.73;;;10.60;99.90;;;;;;4997291;28;20210;-90
2022/09/29 07:31:09;;;;;;;7.40;5.93;;;10.70;99.90;;;;;;4998138;28;20271;-90
2022/09/29 07:33:34;;;;;;;6.17;5.63;;;10.80;99.90;;;;;;5004249;28;20667;-90
2022/09/29 07:36:00;;;;;;;6.57;5.87;;;11.00;99.90;;;;;;5005900;28;20211;-88
2022/09/29 07:38:27;;;;;;;6.50;5.53;;;11.20;99.90;;;;;;4993202;28;20189;-89
2022/09/29 07:40:53;;;;;;;7.70;5.50;;;11.20;99.90;;;;;;4996078;28;20292;-89
2022/09/29 07:43:19;;;;;;;7.07;5.27;;;11.30;99.90;;;;;;5003823;28;20241;-89
2022/09/29 07:45:49;;;;;;;6.30;5.60;;;11.40;99.90;;;;;;5003793;28;20670;-89
2022/09/29 07:48:16;;;;;;;5.93;5.23;;;11.40;99.90;;;;;;5016610;28;20203;-90
2022/09/29 07:50:42;;;;;;;5.73;5.23;;;11.50;99.90;;;;;;5014164;28;20220;-90
2022/09/29 07:53:08;;;;;;;6.20;5.10;;;11.60;99.90;;;;;;5015875;28;20229;-89
2022/09/29 07:55:34;;;;;;;5.57;5.00;;;11.70;99.90;;;;;;5001863;28;20209;-90
2022/09/29 07:58:00;;;;;;;6.00;5.20;;;11.60;99.90;;;;;;5000293;28;20202;-90
2022/09/29 08:00:26;;;;;;;6.03;5.50;;;11.60;99.90;;;;;;4999132;28;20253;-90
2022/09/29 08:02:52;;;;;;;5.17;4.70;;;11.80;99.90;;;;;;5010091;28;20198;-89
2022/09/29 08:05:18;;;;;;;6.00;5.40;;;11.80;99.20;;;;;;5004417;28;20223;-90
2022/09/29 08:07:44;;;;;;;5.23;4.73;;;11.90;99.50;;;;;;5002228;28;20194;-90
2022/09/29 08:10:10;;;;;;;5.47;4.97;;;11.70;99.90;;;;;;5011399;28;20348;-90
2022/09/29 08:12:35;;;;;;;6.47;5.87;;;11.90;98.40;;;;;;5000542;28;20188;-89
2022/09/29 08:15:01;;;;;;;6.00;5.40;;;12.10;97.60;;;;;;5004791;28;20212;-89
2022/09/29 08:17:27;;;;;;;5.60;5.10;;;12.30;98.40;;;;;;4995287;28;20180;-90
2022/09/29 08:19:52;;;;;;;5.53;5.03;;;12.30;97.10;;;;;;4990181;28;20202;-89
2022/09/29 08:22:18;;;;;;;6.03;5.17;;;12.30;97.80;;;;;;4987349;28;20190;-90
2022/09/29 08:24:44;;;;;;;5.90;5.30;;;12.30;97.10;;;;;;4994877;28;20194;-90
2022/09/29 08:27:10;;;;;;;5.07;4.53;;;12.50;97.00;;;;;;4998623;28;20228;-90
2022/09/29 08:29:35;;;;;;;4.70;4.30;;;12.50;96.10;;;;;;4993506;28;20216;-90
2022/09/29 08:32:01;;;;;;;6.13;5.57;;;12.50;94.50;;;;;;5009073;28;20204;-90
2022/09/29 08:34:26;;;;;;;8.70;4.23;;;12.50;93.60;;;;;;4990168;28;20209;-89
2022/09/29 08:36:52;;;;;;;5.10;4.53;;;12.50;94.70;;;;;;5001907;28;20194;-89
2022/09/29 08:39:20;;;;;;;5.10;4.40;;;12.60;94.60;;;;;;5014896;28;20507;-90
2022/09/29 08:41:55;;;;;;;5.30;4.73;;;12.80;95.00;;;;;;5020180;28;20184;-90
2022/09/29 08:44:21;;;;;;;8.17;5.77;;;12.80;95.10;;;;;;5013924;28;20181;-90
2022/09/29 08:46:53;;;;;;;6.60;5.93;;;13.00;94.90;;;;;;5006021;28;20186;-90
2022/09/29 08:49:26;;;;;;;7.17;5.60;;;13.00;95.50;;;;;;4982159;28;20218;-90
2022/09/29 08:51:57;;;;;;;6.90;6.30;;;12.90;96.40;;;;;;4994530;28;20277;-90
2022/09/29 08:54:40;;;;;;;6.77;6.10;;;12.50;98.90;;;;;;4998796;28;20195;-90
2022/09/29 08:57:14;;;;;;;7.03;6.33;;;12.70;98.50;;;;;;5001258;28;20182;-90
2022/09/29 08:59:40;;;;;;;8.27;7.53;;;12.80;98.00;;;;;;4997588;28;20212;-90
2022/09/29 09:02:19;;;;;;;7.93;7.23;;;12.90;98.10;;;;;;4991274;28;20278;-88
2022/09/29 09:04:51;;;;;;;7.83;7.00;;;13.00;99.00;;;;;;5004982;28;20386;-89
2022/09/29 09:07:26;;;;;;;8.20;7.40;;;13.10;98.90;;;;;;4988860;28;20186;-89
2022/09/29 09:10:24;;;;;;;8.73;7.87;;;13.20;99.90;;;;;;4996119;28;20192;-90
2022/09/29 09:13:18;;;;;;;10.50;9.50;;;13.30;99.90;;;;;;5022717;28;20222;-90
2022/09/29 09:15:43;;;;;;;9.03;8.13;;;13.30;99.30;;;;;;5010963;28;20655;-89
2022/09/29 09:18:28;;;;;;;9.67;8.77;;;13.30;99.10;;;;;;4996867;28;20235;-90
2022/09/29 09:21:04;;;;;;;12.63;11.40;;;13.40;99.20;;;;;;4991824;28;20303;-90
2022/09/29 09:23:55;;;;;;;9.87;8.93;;;13.40;98.80;;;;;;5008566;28;20181;-90
2022/09/29 09:26:41;;;;;;;9.13;8.20;;;13.40;99.10;;;;;;4985538;28;20197;-89
2022/09/29 09:29:35;;;;;;;21.07;18.03;;;13.50;97.90;;;;;;4989361;28;20222;-89
2022/09/29 09:32:14;;;;;;;20.87;18.57;;;13.60;96.80;;;;;;4992663;28;20585;-90
2022/09/29 09:34:46;;;;;;;16.17;14.50;;;13.50;97.00;;;;;;5002196;28;20213;-89
2022/09/29 09:37:27;;;;;;;14.03;12.60;;;13.40;97.80;;;;;;5001002;28;20186;-90
2022/09/29 09:40:13;;;;;;;11.17;10.07;;;13.70;98.30;;;;;;5005080;28;20216;-90
2022/09/29 09:42:42;;;;;;;11.03;9.87;;;14.00;95.60;;;;;;4991228;28;20201;-90
2022/09/29 09:45:36;;;;;;;12.57;11.37;;;14.30;93.40;;;;;;4987398;28;20247;-89
2022/09/29 09:48:19;;;;;;;12.63;11.10;;;14.40;93.90;;;;;;4990740;28;20885;-90
2022/09/29 09:50:48;;;;;;;13.83;12.43;;;14.50;91.60;;;;;;5011625;28;20634;-89
2022/09/29 09:53:36;;;;;;;11.40;10.27;;;14.60;89.90;;;;;;4996575;28;20620;-89
2022/09/29 09:56:25;;;;;;;12.87;11.43;;;14.80;90.30;;;;;;5004907;28;20213;-90
2022/09/29 09:59:29;;;;;;;10.43;9.50;;;14.90;90.50;;;;;;4998377;28;20248;-90
2022/09/29 10:01:55;;;;;;;8.90;8.10;;;15.10;86.90;;;;;;4988061;28;20594;-90
2022/09/29 10:04:23;;;;;;;9.73;8.83;;;15.50;86.20;;;;;;4997454;28;20269;-90
2022/09/29 10:06:49;;;;;;;7.77;7.07;;;15.70;83.20;;;;;;4986257;28;20192;-90
2022/09/29 10:09:15;;;;;;;7.80;7.10;;;15.60;86.10;;;;;;4997041;28;20221;-90
2022/09/29 10:11:43;;;;;;;7.50;6.83;;;15.40;83.20;;;;;;4982877;28;20194;-90
2022/09/29 10:14:25;;;;;;;7.83;7.07;;;15.50;84.50;;;;;;5000446;28;20252;-90
2022/09/29 10:17:01;;;;;;;6.87;6.30;;;15.30;85.60;;;;;;4986977;28;20204;-90
2022/09/29 10:19:51;;;;;;;9.13;6.07;;;15.70;82.30;;;;;;4994381;28;20344;-90
2022/09/29 10:22:19;;;;;;;7.60;6.90;;;15.60;80.80;;;;;;4993836;28;20199;-90
2022/09/29 10:24:45;;;;;;;7.73;6.93;;;15.30;84.10;;;;;;4990686;28;20194;-90
2022/09/29 10:27:17;;;;;;;6.33;5.83;;;15.20;85.60;;;;;;4997080;28;20220;-90
2022/09/29 10:29:48;;;;;;;5.97;5.53;;;15.50;82.60;;;;;;4995782;28;20215;-90
2022/09/29 10:32:36;;;;;;;6.57;5.83;;;15.60;80.50;;;;;;4995490;28;20214;-90
2022/09/29 10:35:21;;;;;;;6.73;6.13;;;16.10;78.80;;;;;;4994027;28;20786;-90
2022/09/29 10:38:14;;;;;;;6.30;5.70;;;16.50;76.90;;;;;;4993093;28;20214;-89
2022/09/29 10:40:58;;;;;;;9.33;6.27;;;16.30;79.30;;;;;;4996580;28;20285;-89
2022/09/29 10:43:39;;;;;;;7.07;5.73;;;16.70;75.40;;;;;;4997279;28;20717;-89
2022/09/29 10:46:26;;;;;;;5.63;5.13;;;16.90;74.60;;;;;;5000256;28;20604;-90
2022/09/29 10:49:18;;;;;;;7.73;5.43;;;17.10;73.70;;;;;;4998813;28;20777;-89
2022/09/29 10:52:03;;;;;;;5.93;5.07;;;16.80;72.90;;;;;;4999116;28;20205;-90
2022/09/29 10:54:33;;;;;;;5.50;5.00;;;16.70;74.60;;;;;;5001455;28;20216;-90
2022/09/29 10:57:11;;;;;;;5.10;4.57;;;16.40;78.00;;;;;;4995410;28;20242;-90
2022/09/29 10:59:49;;;;;;;5.63;5.13;;;16.30;78.90;;;;;;4999029;28;20199;-90
2022/09/29 11:02:30;;;;;;;6.77;5.20;;;16.50;77.10;;;;;;5001494;28;20228;-89
2022/09/29 11:04:58;;;;;;;5.67;5.13;;;16.50;75.90;;;;;;5005688;28;20598;-90
2022/09/29 11:07:24;;;;;;;5.00;4.53;;;16.30;75.30;;;;;;5001366;28;20542;-89
2022/09/29 11:09:53;;;;;;;5.50;4.90;;;16.50;74.20;;;;;;4989662;28;20324;-90
2022/09/29 11:12:27;;;;;;;4.88;4.40;;;16.50;74.00;;;;;;4994345;28;20200;-90
2022/09/29 11:14:53;;;;;;;5.22;4.80;;;16.60;73.60;;;;;;4991866;28;20224;-89
2022/09/29 11:17:50;;;;;;;4.82;4.43;;;16.60;75.40;;;;;;4989636;28;20608;-89
2022/09/29 11:20:17;;;;;;;7.25;4.57;;;16.60;73.30;;;;;;4995345;28;20307;-90
2022/09/29 11:23:20;;;;;;;6.15;4.45;;;16.70;75.50;;;;;;5001789;28;20592;-90
2022/09/29 11:26:04;;;;;;;4.72;4.03;;;16.60;74.90;;;;;;5007826;28;20195;-90
2022/09/29 11:28:52;;;;;;;5.13;4.35;;;16.70;75.40;;;;;;4994006;28;20184;-89
2022/09/29 11:31:17;;;;;;;4.38;3.97;;;16.70;75.40;;;;;;4990763;28;20216;-89
2022/09/29 11:33:55;;;;;;;4.40;4.00;;;16.60;73.90;;;;;;4997226;28;20188;-90
2022/09/29 11:36:37;;;;;;;4.72;4.32;;;16.80;73.80;;;;;;5000334;28;20267;-90
2022/09/29 11:39:21;;;;;;;5.28;4.78;;;16.90;74.90;;;;;;5002219;28;20208;-90
2022/09/29 11:41:58;;;;;;;6.22;4.63;;;16.90;73.80;;;;;;5006670;28;20178;-91
2022/09/29 11:44:35;;;;;;;7.50;4.47;;;16.90;73.70;;;;;;5006566;28;20183;-90
2022/09/29 11:47:11;;;;;;;4.90;4.37;;;16.60;76.20;;;;;;4980667;28;20218;-90
2022/09/29 11:50:04;;;;;;;5.77;4.60;;;16.80;75.60;;;;;;4977920;28;20633;-90
2022/09/29 11:52:54;;;;;;;4.87;4.20;;;16.70;75.60;;;;;;4997222;28;20206;-91
2022/09/29 11:55:29;;;;;;;4.90;4.40;;;17.00;73.50;;;;;;4981412;28;20692;-92
2022/09/29 11:58:29;;;;;;;6.63;4.27;;;17.00;71.50;;;;;;5006223;28;20184;-92
2022/09/29 12:01:25;;;;;;;4.40;4.00;;;17.00;71.90;;;;;;5007812;28;20208;-91
2022/09/29 12:04:14;;;;;;;6.03;4.15;;;17.00;71.90;;;;;;4998166;28;20187;-92
2022/09/29 12:06:53;;;;;;;4.63;4.10;;;17.10;71.80;;;;;;4994284;28;20740;-91
2022/09/29 12:09:38;;;;;;;5.22;4.45;;;17.10;72.00;;;;;;4992890;28;20207;-90
2022/09/29 12:12:04;;;;;;;5.18;4.68;;;17.00;71.00;;;;;;4997444;28;20181;-91
2022/09/29 12:14:38;;;;;;;4.85;4.40;;;16.70;73.30;;;;;;4999296;28;20219;-91
2022/09/29 12:17:12;;;;;;;4.45;4.05;;;16.70;71.80;;;;;;4997201;28;20185;-90
2022/09/29 12:19:40;;;;;;;4.90;4.40;;;16.80;72.30;;;;;;4993350;28;20229;-89
2022/09/29 12:22:16;;;;;;;4.35;3.92;;;17.10;72.50;;;;;;4974080;28;20181;-89
2022/09/29 12:24:50;;;;;;;6.93;4.20;;;17.00;70.70;;;;;;4992277;28;20184;-88
2022/09/29 12:27:32;;;;;;;4.40;4.03;;;16.90;71.20;;;;;;4990395;28;20225;-89
2022/09/29 12:30:01;;;;;;;4.28;3.92;;;17.00;71.30;;;;;;4996109;28;20208;-91
2022/09/29 12:32:31;;;;;;;4.63;4.20;;;16.80;71.80;;;;;;4997499;28;20209;-89
2022/09/29 12:35:03;;;;;;;4.20;3.80;;;16.80;75.00;;;;;;4999013;28;20203;-89
2022/09/29 12:37:46;;;;;;;4.50;3.97;;;16.70;72.10;;;;;;5003333;28;20188;-90
2022/09/29 12:40:24;;;;;;;4.60;4.20;;;16.70;73.00;;;;;;4972639;28;20205;-89
2022/09/29 12:43:11;;;;;;;4.67;4.27;;;16.80;71.30;;;;;;5000482;28;20185;-90
2022/09/29 12:45:55;;;;;;;7.23;4.50;;;16.60;73.90;;;;;;5005823;28;20168;-89
2022/09/29 12:49:03;;;;;;;4.73;4.23;;;16.60;73.70;;;;;;5010615;28;20178;-89
2022/09/29 12:51:40;;;;;;;5.25;4.57;;;16.70;72.00;;;;;;4964459;28;20213;-88
2022/09/29 12:54:17;;;;;;;6.57;4.55;;;16.60;71.80;;;;;;4993035;28;20218;-89
2022/09/29 12:56:54;;;;;;;4.65;4.22;;;16.60;71.40;;;;;;4977108;28;20226;-89
2022/09/29 12:59:36;;;;;;;4.75;4.20;;;16.70;70.90;;;;;;4985388;28;20205;-89
2022/09/29 13:02:28;;;;;;;4.88;4.38;;;16.60;72.60;;;;;;4992723;28;20198;-90
2022/09/29 13:05:21;;;;;;;9.00;4.55;;;16.50;71.30;;;;;;4989895;28;20626;-90
2022/09/29 13:08:22;;;;;;;4.43;4.07;;;16.60;71.70;;;;;;4989739;28;20283;-89
2022/09/29 13:11:10;;;;;;;4.80;4.10;;;16.60;71.80;;;;;;4981657;28;20611;-89
2022/09/29 13:13:54;;;;;;;6.05;4.22;;;16.70;70.30;;;;;;4998803;28;20193;-89